createdAt,value
2022-08-16T11:42:16.792Z,2.58
2022-08-16T11:59:12.760Z,2.58
2022-08-16T12:01:58.926Z,2.40
2022-08-16T12:04:35.004Z,2.75
2022-08-16T12:07:29.834Z,2.92
2022-08-16T12:10:43.267Z,2.55
2022-08-16T12:13:43.085Z,2.90
2022-08-16T12:16:21.202Z,3.33
2022-08-16T12:21:57.592Z,2.72
2022-08-16T12:24:18.030Z,2.95
2022-08-16T12:26:57.350Z,2.95
2022-08-16T12:29:38.974Z,2.78
2022-08-16T12:32:38.215Z,3.08
2022-08-16T12:35:40.370Z,2.80
2022-08-16T12:38:40.897Z,2.50
2022-08-16T12:42:19.140Z,2.90
2022-08-16T12:44:41.241Z,2.80
2022-08-16T12:47:28.278Z,3.00
2022-08-16T12:50:33.156Z,2.90
2022-08-16T12:53:00.509Z,2.72
2022-08-16T12:55:41.969Z,2.75
2022-08-16T12:58:13.910Z,3.45
2022-08-16T13:01:01.837Z,2.85
2022-08-16T13:03:41.031Z,3.00
2022-08-16T13:06:20.185Z,2.78
2022-08-16T13:09:05.406Z,3.15
2022-08-16T13:11:55.121Z,3.30
2022-08-16T13:14:31.178Z,3.10
2022-08-16T13:17:09.588Z,3.40
2022-08-16T13:20:08.148Z,2.78
2022-08-16T13:22:37.619Z,3.00
2022-08-16T13:25:55.850Z,2.90
2022-08-16T13:31:41.969Z,3.33
2022-08-16T13:34:18.464Z,2.87
2022-08-16T13:36:56.110Z,2.83
2022-08-16T13:42:43.252Z,3.10
2022-08-16T13:50:51.794Z,2.80
2022-08-16T13:53:36.868Z,2.80
2022-08-16T13:56:25.017Z,2.95
2022-08-16T13:59:21.222Z,3.25
2022-08-16T14:02:02.634Z,2.83
2022-08-16T14:04:41.808Z,3.20
2022-08-16T14:07:45.905Z,3.10
2022-08-16T14:10:21.583Z,2.90
2022-08-16T14:12:59.512Z,3.20
2022-08-16T14:15:36.507Z,2.90
2022-08-16T14:21:21.935Z,2.92
2022-08-16T14:24:02.564Z,3.45
2022-08-16T14:27:05.573Z,2.90
2022-08-16T14:30:01.338Z,2.83
2022-08-16T14:33:06.890Z,2.70
2022-08-16T14:35:50.121Z,3.35
2022-08-16T14:38:29.799Z,2.75
2022-08-16T14:41:13.461Z,3.40
2022-08-16T14:50:32.318Z,2.90
2022-08-16T14:53:05.311Z,3.10
2022-08-16T14:58:34.489Z,2.90
2022-08-16T15:01:12.327Z,3.22
2022-08-16T15:03:45.087Z,2.88
2022-08-16T15:06:21.943Z,3.60
2022-08-16T15:09:03.974Z,3.22
2022-08-16T15:11:55.938Z,3.40
2022-08-16T15:14:27.729Z,3.20
2022-08-16T15:17:15.790Z,3.03
2022-08-16T15:20:11.577Z,3.22
2022-08-16T15:22:57.994Z,3.08
2022-08-16T15:25:46.979Z,3.20
2022-08-16T15:31:19.366Z,3.25
2022-08-16T15:33:56.715Z,2.90
2022-08-16T15:36:29.938Z,3.30
2022-08-16T15:39:35.378Z,3.20
2022-08-16T15:42:01.199Z,3.00
2022-08-16T15:44:50.888Z,3.10
2022-08-16T15:47:39.663Z,3.10
2022-08-16T15:50:22.516Z,3.20
2022-08-16T15:52:49.401Z,3.33
2022-08-16T15:55:29.790Z,3.03
2022-08-16T15:58:35.348Z,3.08
2022-08-16T16:00:52.004Z,3.90
2022-08-16T16:03:40.010Z,3.55
2022-08-16T16:06:07.308Z,3.30
2022-08-16T16:08:35.162Z,3.47
2022-08-16T16:11:07.011Z,3.17
2022-08-16T16:13:34.715Z,3.20
2022-08-16T16:16:03.430Z,3.55
2022-08-16T16:18:34.389Z,3.30
2022-08-16T16:21:06.273Z,2.97
2022-08-16T16:26:11.278Z,3.33
2022-08-16T16:29:05.990Z,3.00
2022-08-16T16:31:27.381Z,3.33
2022-08-16T16:33:56.235Z,3.13
2022-08-16T16:36:32.527Z,3.22
2022-08-16T16:39:07.266Z,3.15
2022-08-16T16:41:35.323Z,3.13
2022-08-16T16:44:05.398Z,3.17
2022-08-16T16:46:43.525Z,2.92
2022-08-16T16:49:14.136Z,3.10
2022-08-16T16:51:44.728Z,3.30
2022-08-16T16:54:27.744Z,3.60
2022-08-16T16:56:55.599Z,3.17
2022-08-16T16:59:25.626Z,3.20
2022-08-16T17:02:00.404Z,2.90
2022-08-16T17:04:55.529Z,3.00
2022-08-16T17:07:24.373Z,3.35
2022-08-16T17:09:53.237Z,3.05
2022-08-16T17:12:46.904Z,2.90
2022-08-16T17:15:11.832Z,3.30
2022-08-16T17:17:59.876Z,3.17
2022-08-16T17:20:29.745Z,3.00
2022-08-16T17:22:58.319Z,2.88
2022-08-16T17:25:35.076Z,3.10
2022-08-16T17:28:58.571Z,3.30
2022-08-16T17:31:11.503Z,2.58
2022-08-16T17:33:54.670Z,3.13
2022-08-16T17:36:36.497Z,3.05
2022-08-16T17:39:04.670Z,3.60
2022-08-16T17:41:31.475Z,2.75
2022-08-16T17:44:00.256Z,2.90
2022-08-16T17:46:41.428Z,3.05
2022-08-16T17:49:14.961Z,3.42
2022-08-16T17:51:41.718Z,3.30
2022-08-16T17:54:08.441Z,2.90
2022-08-16T17:56:55.362Z,3.08
2022-08-16T18:01:55.767Z,2.95
2022-08-16T18:04:45.243Z,3.08
2022-08-16T18:07:15.046Z,3.17
2022-08-16T18:09:42.066Z,3.10
2022-08-16T18:12:44.274Z,3.58
2022-08-16T18:15:13.741Z,3.15
2022-08-16T18:20:28.641Z,3.20
2022-08-16T18:23:06.745Z,3.17
2022-08-16T18:25:43.960Z,3.15
2022-08-16T18:28:11.384Z,3.20
2022-08-16T18:30:42.079Z,3.00
2022-08-16T18:33:09.400Z,3.20
2022-08-16T18:35:36.341Z,3.63
2022-08-16T18:38:06.031Z,3.78
2022-08-16T18:40:36.448Z,3.40
2022-08-16T18:43:07.756Z,2.78
2022-08-16T18:45:39.352Z,3.45
2022-08-16T18:48:06.971Z,3.15
2022-08-16T18:50:59.992Z,3.33
2022-08-16T18:53:28.339Z,3.00
2022-08-16T18:55:58.127Z,3.25
2022-08-16T18:58:26.663Z,2.80
2022-08-16T19:00:57.094Z,3.35
2022-08-16T19:03:31.442Z,2.83
2022-08-16T19:06:02.846Z,3.17
2022-08-16T19:08:30.512Z,3.20
2022-08-16T19:10:57.558Z,3.47
2022-08-16T19:13:27.154Z,3.55
2022-08-16T19:15:59.996Z,2.90
2022-08-16T19:18:40.069Z,2.90
2022-08-16T19:21:10.303Z,3.00
2022-08-16T19:23:43.354Z,2.92
2022-08-16T19:26:24.684Z,3.20
2022-08-16T19:28:59.656Z,3.13
2022-08-16T19:31:33.695Z,3.28
2022-08-16T19:34:08.959Z,3.53
2022-08-16T19:36:37.696Z,3.38
2022-08-16T19:39:15.052Z,3.20
2022-08-16T19:41:55.451Z,3.20
2022-08-16T19:44:25.380Z,3.15
2022-08-16T19:46:58.144Z,3.20
2022-08-16T19:49:28.009Z,2.97
2022-08-16T19:51:57.609Z,3.50
2022-08-16T19:54:24.950Z,3.42
2022-08-16T19:56:52.043Z,3.38
2022-08-16T19:59:39.235Z,3.47
2022-08-16T20:02:36.248Z,3.40
2022-08-16T20:05:06.572Z,3.33
2022-08-16T20:07:34.051Z,3.15
2022-08-16T20:10:05.212Z,3.10
2022-08-16T20:12:34.955Z,3.53
2022-08-16T20:15:02.365Z,3.60
2022-08-16T20:17:29.494Z,3.45
2022-08-16T20:20:00.873Z,3.65
2022-08-16T20:22:53.071Z,3.33
2022-08-16T20:25:33.052Z,3.28
2022-08-16T20:28:15.217Z,3.30
2022-08-16T20:30:59.538Z,3.67
2022-08-16T20:33:29.320Z,3.60
2022-08-16T20:35:58.647Z,3.50
2022-08-16T20:38:26.866Z,3.92
2022-08-16T20:41:02.985Z,3.40
2022-08-16T20:43:29.774Z,3.38
2022-08-16T20:45:58.901Z,3.60
2022-08-16T20:48:34.522Z,3.53
2022-08-16T20:51:13.647Z,3.78
2022-08-16T20:53:44.901Z,3.50
2022-08-16T20:56:16.023Z,3.58
2022-08-16T20:58:43.449Z,3.65
2022-08-16T21:01:13.138Z,3.33
2022-08-16T21:03:46.622Z,3.97
2022-08-16T21:06:36.579Z,2.92
2022-08-16T21:09:08.598Z,3.85
2022-08-16T21:11:35.991Z,3.45
2022-08-16T21:14:06.696Z,3.35
2022-08-16T21:16:34.065Z,3.88
2022-08-16T21:19:01.404Z,4.20
2022-08-16T21:21:49.085Z,3.67
2022-08-16T21:24:16.879Z,4.07
2022-08-16T21:26:49.778Z,3.58
2022-08-16T21:29:22.594Z,3.53
2022-08-16T21:31:54.524Z,3.80
2022-08-16T21:34:28.009Z,3.45
2022-08-16T21:36:55.326Z,3.60
2022-08-16T21:39:25.176Z,3.80
2022-08-16T21:41:54.667Z,3.70
2022-08-16T21:44:38.733Z,3.63
2022-08-16T21:47:06.818Z,3.65
2022-08-16T21:49:38.310Z,3.80
2022-08-16T21:52:09.890Z,3.50
2022-08-16T21:55:06.469Z,3.58
2022-08-16T21:57:36.496Z,4.00
2022-08-16T22:00:13.009Z,4.28
2022-08-16T22:02:51.339Z,3.67
2022-08-16T22:05:18.421Z,4.32
2022-08-16T22:08:02.329Z,4.05
2022-08-16T22:11:06.422Z,3.78
2022-08-16T22:13:41.075Z,3.80
2022-08-16T22:16:22.529Z,4.03
2022-08-16T22:18:52.497Z,3.47
2022-08-16T22:21:23.315Z,3.90
2022-08-16T22:23:55.232Z,3.90
2022-08-16T22:26:30.607Z,3.50
2022-08-16T22:29:06.782Z,3.42
2022-08-16T22:31:38.340Z,3.33
2022-08-16T22:34:10.414Z,3.92
2022-08-16T22:36:39.023Z,3.70
2022-08-16T22:39:16.125Z,3.88
2022-08-16T22:41:52.592Z,3.75
2022-08-16T22:44:20.922Z,3.83
2022-08-16T22:46:51.328Z,4.00
2022-08-16T22:49:21.395Z,3.97
2022-08-16T22:51:49.120Z,4.00
2022-08-16T22:54:44.211Z,3.85
2022-08-16T22:57:14.266Z,3.80
2022-08-16T22:59:41.723Z,3.45
2022-08-16T23:02:19.256Z,3.60
2022-08-16T23:04:48.568Z,3.60
2022-08-16T23:07:25.943Z,3.97
2022-08-16T23:10:07.945Z,3.60
2022-08-16T23:12:53.137Z,3.97
2022-08-16T23:15:23.126Z,3.83
2022-08-16T23:17:54.055Z,3.78
2022-08-16T23:20:25.790Z,3.63
2022-08-16T23:23:20.811Z,3.83
2022-08-16T23:25:54.966Z,3.80
2022-08-16T23:28:31.555Z,3.90
2022-08-16T23:30:59.781Z,3.53
2022-08-16T23:33:31.846Z,3.70
2022-08-16T23:36:02.067Z,3.65
2022-08-16T23:38:38.482Z,3.90
2022-08-16T23:41:12.268Z,3.83
2022-08-16T23:43:44.236Z,3.73
2022-08-16T23:46:17.575Z,3.55
2022-08-16T23:49:57.924Z,3.85
2022-08-16T23:51:40.299Z,3.38
2022-08-16T23:54:16.496Z,3.60
2022-08-16T23:56:44.234Z,3.60
2022-08-16T23:59:13.971Z,3.55
